This is the latest recevied weather packets stored in our database for station/object N7JP. If no packets are shown the sender has not sent any weather packets the latest 10 day(s).
| Time | Temp. | Humidity | Pressure | Rain* | Wind** | Luminosity | Snow |
|---|---|---|---|---|---|---|---|
| 1777123987 | 3.33° C | 90% | 1009.2 hPa | 0 mm | - | - | - |
| 1777123088 | 3.33° C | 91% | 1009.1 hPa | 0 mm | - | - | - |
| 1777122186 | 3.33° C | 90% | 1009.1 hPa | 0 mm | - | - | - |
| 1777121286 | 3.89° C | 90% | 1009.1 hPa | 0 mm | - | - | - |
| 1777120377 | 3.89° C | 91% | 1009.2 hPa | 0 mm | - | - | - |
| 1777119451 | 3.89° C | 90% | 1009.1 hPa | 0 mm | - | - | - |
| 1777118548 | 4.44° C | 90% | 1009.3 hPa | 0 mm | - | - | - |
| 1777117645 | 3.89° C | 90% | 1009.3 hPa | 0 mm | - | - | - |
| 1777116747 | 4.44° C | 89% | 1009.3 hPa | 0 mm | - | - | - |
| 1777115843 | 4.44° C | 89% | 1009.4 hPa | 0 mm | - | - | - |
| 1777114943 | 4.44° C | 88% | 1009.3 hPa | 0 mm | - | - | - |
| 1777114043 | 5° C | 87% | 1009.5 hPa | 0 mm | - | - | - |
| 1777113142 | 5.56° C | 84% | 1009.5 hPa | 0 mm | - | - | - |
| 1777112243 | 5.56° C | 84% | 1009.7 hPa | 0 mm | - | - | - |
| 1777111323 | 5.56° C | 84% | 1009.6 hPa | 0 mm | - | - | - |
| 1777110423 | 6.11° C | 83% | 1009.6 hPa | 0 mm | - | - | - |
| 1777109525 | 6.67° C | 82% | 1009.7 hPa | 0 mm | - | - | - |
| 1777108624 | 7.22° C | 81% | 1009.7 hPa | 0 mm | - | - | - |
| 1777107700 | 7.78° C | 80% | 1009.8 hPa | 0 mm | - | - | - |
| 1777106798 | 7.78° C | 76% | 1009.8 hPa | 0 mm | - | - | - |
| 1777105898 | 7.78° C | 77% | 1009.8 hPa | 0 mm | - | - | - |
| 1777104997 | 7.22° C | 80% | 1009.9 hPa | 0 mm | - | - | - |
| 1777104095 | 7.22° C | 80% | 1009.8 hPa | 0 mm | - | - | - |
| 1777103186 | 6.67° C | 83% | 1009.8 hPa | 0 mm | - | - | - |
| 1777102287 | 6.67° C | 82% | 1009.8 hPa | 0 mm | - | - | - |
* Rain latest hour (hover to see other rain measurements)
** Current wind speed in m/s (hover to see current wind gust speed)